LiveATC.Net - Listen to live air traffic control over the Internet!

Find LiveATC Audio Streams


Airport/ARTCC Code

Frequency
(e.g., 124.400, 128.75)
Site-wide search

Browse LiveATC Feeds
LiveATC Coverage Map
Top 50 LiveATC Feeds
Bad Weather Areas

LiveATC FAQ
Offer a LiveATC Feed
Contact LiveATC.net
Press Inquiries

LiveATC on iPhone
LiveATC on Android

Windows Phone
Windows 8/10

LiveATC Mobile
(Mobile browser)

ATC Audio Archives
Interesting Recordings

LiveATC Forums

Home Page
About LiveATC.net
Make a Donation
LiveATC Store

Terms of Use
Privacy Policy

Canadian Air Freqs

AIRMETs/SIGMETs

FAA Airport Status
Nat'l Airspace Status
Arrival Demand Charts


Server Software By:
Icecast.org
Liquidsoap


Current Potentially Bad Weather Airports
(updated every 30 minutes - sorted alphabetically by ICAO code)



This page lists LiveATC.net airport areas that may be interesting to listen to because of challenging flying (weather) conditions. Challenging weather conditions include low ceilings, limited visibility, high or gusty winds, or thunderstorms.

Updated: Sat Dec 3 04:10:02 UTC 2016
Click on airport name to go to that airport area's feeds.

CYKZ Ground/TowerButtonville Municipal Airport
cykzNearest METAR:
CYKZ 030346Z 28009KT 2SM -SHSN BR FEW008 VV013 01/M00 A3002 RMK CF1SN8 CF TR SN WET SLP173
CYQB TowerQuebec Jean Lesage International Airport
cyqbNearest METAR:
CYQB 030300Z 21003KT 1 1/2SM -SN BR FEW003 OVC007 00/M00 A2965 RMK SF2ST6 VIS VRB 1-2 CIG VRB 5-9 SLP046
CYSB Gnd/Twr/CenterSudbury Airport
WX MAP UNAVAILABLENearest METAR:
CYSB 030312Z 32008G15KT 15SM -SN BKN016 OVC063 M02/M05 A3000 RMK SC6SC2 SLP177
CYSC CTAFSherbrooke Airport
WX MAP UNAVAILABLENearest METAR:
CYSC 030357Z AUTO 26008KT 3SM -SN OVC006 00/M00 A2965 RMK SLP050
CYTS CTAF/FSS/AreaIroquois Falls Airport
WX MAP UNAVAILABLENearest METAR:
CYTS 030300Z 32011G16KT 8SM -SN BKN010 BKN025 OVC046 M03/M04 A3001 RMK SF5SC1SC2 SLP180
CYVO Gnd/RDO/CenterVal-D'Or Airport
WX MAP UNAVAILABLENearest METAR:
CYVO 030348Z AUTO 33011KT 9SM -SN OVC010 M02/M03 A2988 RMK SLP140
CYYT Gnd/Twr/Gander CenterSt. John's International Airport
WX MAP UNAVAILABLENearest METAR:
CYYT 030300Z 09016G28KT 1 1/2SM R11/5500VP6000FT/U -RA BR OVC003 02/01 A2934 RMK SF8 SLP942
CYZF Ground/TowerYellowknife Airport
WX MAP UNAVAILABLENearest METAR:
CYZF 030300Z 13015G20KT 12SM -SN BKN010 OVC040 M04/M06 A2948 RMK SC5SC3 SLP001
EBBR ArrivalBrussels National Airport
WX MAP UNAVAILABLENearest METAR:
EBBR 030350Z 09002KT 0250 R25L/0350N R25R/0500N R01/0400N FG OVC001 01/01 Q1024 NOSIG
EFKU Tower/ApproachKuopio Airport
WX MAP UNAVAILABLENearest METAR:
EFKU 030350Z AUTO 33011KT 9999 -SN FEW010 BKN025 BKN067 M05/M07 Q1006
MUAC/Eurocontrol Delta HighMaastricht Aachen Airport
WX MAP UNAVAILABLENearest METAR:
EHBK 030355Z AUTO 08002KT 0200 R21/0325N FZFG VV000 M01/M01 Q1024
EHEH Gnd/Twr/AppEindhoven Airport
WX MAP UNAVAILABLENearest METAR:
EHEH 030355Z AUTO 02002KT 0350 FZFG OVC000 M03/M03 Q1025 RED
EHRD Twr/App Rotterdam The Hague Airport
WX MAP UNAVAILABLENearest METAR:
EHRD 030355Z AUTO 00000KT 0650 R06/0750N FZFG BKN039 M04/M04 Q1025 TEMPO 8000 MIFG
ENKB Twr/AppKristiansund Kvernberget Airport
WX MAP UNAVAILABLENearest METAR:
ENKB 030350Z AUTO 10004KT 070V140 2400 -SN VV011 00/M00 Q1017 RMK WIND 746FT 16010KT
EPKT Del/Twr/AppKatowice International Airport
WX MAP UNAVAILABLENearest METAR:
EPKT 030330Z 29011KT 9999 -SN BKN011 OVC014 01/M01 Q1017
EPMO TowerWarsaw-Modlin Mazovia Airport
WX MAP UNAVAILABLENearest METAR:
EPMO 030330Z 32009KT 2500 -SN BKN003 OVC017 00/00 Q1014 R08/290295
EYKA Gnd/Twr/FISKaunas Airport
WX MAP UNAVAILABLENearest METAR:
EYKA 030350Z 30006KT 220V010 9000 -SN BKN010 OVC026 M01/M03 Q1009
KASE Del/Gnd/Twr/ZDVAspen-Pitkin County Airport/Sardy Field
kaseNearest METAR:
KASE 030353Z AUTO 01003KT 2 1/2SM -SN BR OVC026 M06/M07 A3010 RMK AO2 SLP220 P0000 T10611072 TSNO
KDLH Gnd/Twr/AppDuluth International Airport
kdlhNearest METAR:
KDLH 030255Z 31009KT 10SM OVC009 M02/M04 A3022 RMK AO2 SLP256 T10221044 50003
KHUL/KPQI/ZBW01/15Houlton International Airport
kpqiNearest METAR:
KPQI 030356Z AUTO 02004KT 1SM -SN BR OVC013 M01/M01 A2961 RMK AO2 SLP072 P0002 T10061011 FZRANO RVRNO
KHUL/KPQI/ZBW01/15Houlton International Airport
khulNearest METAR:
KHUL 030353Z AUTO 36004KT 3SM -SN BR BKN007 OVC014 00/M01 A2959 RMK AO2 SLP025 P0001 T00001006
KLBB Gnd/Twr/AppLubbock Preston Smith International Airport
klbbNearest METAR:
KLBB 030353Z 05015G24KT 4SM -RA BR OVC005 04/03 A3009 RMK AO2 RAE12B46 SLP182 P0000 T00390033
KLRD Ground/TowerLaredo International Airport
klrdNearest METAR:
KLRD 030356Z 07013KT 10SM OVC008 21/19 A2987 RMK AO2 SLP118 T02060194 $
KMAF Twr/AppMidland International Airport
WX MAP UNAVAILABLENearest METAR:
KMAF 030353Z 04011KT 2 1/2SM -RA BR OVC003 07/06 A3002 RMK AO2 RAE04B52 SLP149 P0000 T00670056
KPAE Gnd/Twr/AppSnohomish County Airport (Paine Field)
kpaeNearest METAR:
KPAE 030353Z 15006KT 4SM -RA BR OVC005 07/07 A3012 RMK AO2 RAB03 CIG 003V008 SLP201 P0005 T00720067
KSJT Tower/ApproachSan Angelo Regional Airport/Mathis Field
ksjtNearest METAR:
KSJT 030351Z 06011KT 3SM BR OVC003 12/11 A3002 RMK AO2 RAB20E29 SLP161 P0000 T01170111
LFLY TowerLyon-Bron Airport
WX MAP UNAVAILABLENearest METAR:
LFLY 030330Z AUTO 07002KT 5000 BR OVC018 02/01 Q1018 TEMPO 1400 -FZDZ OVC003
LFPO DepartureParis Orly Airport
WX MAP UNAVAILABLENearest METAR:
LFPO 030330Z 05007KT 4000 BR OVC006 06/05 Q1021 TEMPO 1500 BR BKN002
LPPT ApproachLisboa Airport
WX MAP UNAVAILABLENearest METAR:
LPPT 030330Z 12007KT 9999 FEW003 OVC005 14/14 Q1008
LUKK ControlChisinau International Airport
WX MAP UNAVAILABLENearest METAR:
LUKK 030400Z 28013KT 9999 OVC020 01/M03 Q1009 R26/290199 TEMPO 32020G32KT
OMDB Tower #2Dubai International Airport
WX MAP UNAVAILABLENearest METAR:
OMDB 030400Z 09003KT 0100 R30L/0225N FG VV001 22/22 Q1020 BECMG 3000 BR SCT003
PAFA Gnd/Twr/AppFairbanks International Airport
pafaNearest METAR:
PAFA 030353Z 25006KT 3SM -SN BR BKN016 OVC038 M21/M24 A2984 RMK AO2 SLP120 P0000 T12061239 VISNO NE $
PAMR Ground/TowerMerrill Field Airport
pamrNearest METAR:
PAMR 030353Z 35008KT 9SM -SN BKN044 OVC110 M08/M18 A2945 RMK AO2 SLP976 P0000 T10831183 $
Matsu CTAFPalmer Municipal Airport
paaqNearest METAR:
PAAQ 030353Z AUTO 00000KT 2 1/2SM -SN BR BKN012 OVC018 M08/M11 A2941 RMK AO2 SLP965 P0000 T10831106 TSNO
Matsu CTAFPalmer Municipal Airport
pawsNearest METAR:
PAWS 030356Z AUTO 25006KT 2 1/2SM OVC017 M09/M12 A2948 RMK AO1
Matsu CTAFPalmer Municipal Airport
pabvNearest METAR:
PABV 030356Z AUTO 22006KT 9SM -SN OVC028 M08/M12 A2946 RMK AO2 SLP984 P0000 T10831117 FZRANO $
SGAS Gnd/Twr/AppSilvio Pettirossi International Airport
WX MAP UNAVAILABLENearest METAR:
SGAS 030300Z 19011KT 140V220 5000 TSRA OVC010 FEW040CB 23/22Q1010
URKK Gnd/Twr/AppPashkovskiy General Airport
WX MAP UNAVAILABLENearest METAR:
URKK 030330Z 16009MPS 9999 -SHRA BKN059CB 03/02 Q1000 R23C/290047Z TEMPO 1000 TSRASN BKN005 BKN020CB RMK QFE747
URSS Gnd/Twr/AppSochi International Airport
WX MAP UNAVAILABLENearest METAR:
URSS 030330Z 11004MPS 7000 -SHRA FEW010 OVC026CB 05/03 Q1008 WS ALL RWY R06/290055 R02/290055 NOSIG RMK R02/11004G08MPS MT OBSC QFE755
USCC Twr/App/ControlChelyabinsk Airport
WX MAP UNAVAILABLENearest METAR:
USCC 030330Z 07001MPS 3900 -SN BR BKN007 M18/M20 Q1019 R09/490347 TEMPO 0300 FZFG VV002 RMK QFE744
UUEE Twr/App/RadarSheremetyevo Airport
WX MAP UNAVAILABLENearest METAR:
UUEE 030330Z VRB01MPS 2000 -SN BR OVC007 M05/M06 Q1005 R24R/490330 R24L/490330 TEMPO 1000 SHSN BR BKN010CB
UUWW Gnd/Twr/App/ACCVnukovo Airport
WX MAP UNAVAILABLENearest METAR:
UUWW 030330Z 13002MPS 1900 R06/P2000U -SN BR SCT008 BKN040 M05/M06 Q1005 R06/520245 TEMPO 1200 -SHSN BR BKN012CB
YPDN Gnd/Twr/App/DepDarwin International Airport
WX MAP UNAVAILABLENearest METAR:
YPDN 030330Z 02006KT 9999 SCT030 BKN400 33/24 Q1009 TEMPO 0530/0630 VRB25G40KT 1000 TSRA BKN010 SCT020CB